This is the latest recevied weather packets stored in our database for station/object KK7MLS-13. If no packets are shown the sender has not sent any weather packets the latest 10 day(s).
| Time | Temp. | Humidity | Pressure | Rain* | Wind** | Luminosity | Snow |
|---|---|---|---|---|---|---|---|
| 1777829674 | 25.56° C | 47% | 1012 hPa | 0 mm | - | 584 W/m² | - |
| 1777829371 | 25° C | 48% | 1012 hPa | 0 mm | - | 574 W/m² | - |
| 1777829068 | 23.89° C | 49% | 1012 hPa | 0 mm | - | 563 W/m² | - |
| 1777828764 | 23.89° C | 50% | 1012 hPa | 0 mm | - | 552 W/m² | - |
| 1777828461 | 23.33° C | 51% | 1011.9 hPa | 0 mm | - | 542 W/m² | - |
| 1777828159 | 23.33° C | 51% | 1012 hPa | 0 mm | - | 527 W/m² | - |
| 1777827855 | 23.33° C | 53% | 1012.1 hPa | 0 mm | - | 511 W/m² | - |
| 1777827552 | 22.78° C | 53% | 1012.1 hPa | 0 mm | - | 505 W/m² | - |
| 1777827250 | 22.22° C | 54% | 1012.1 hPa | 0 mm | - | 492 W/m² | - |
| 1777826945 | 22.22° C | 55% | 1012.1 hPa | 0 mm | - | 480 W/m² | - |
| 1777826643 | 22.22° C | 56% | 1011.9 hPa | 0 mm | - | 465 W/m² | - |
| 1777826339 | 22.22° C | 55% | 1012.2 hPa | 0 mm | - | 450 W/m² | - |
| 1777826037 | 21.67° C | 59% | 1012 hPa | 0 mm | - | 441 W/m² | - |
| 1777825733 | 21.11° C | 59% | 1012.1 hPa | 0 mm | - | 424 W/m² | - |
| 1777825431 | 21.11° C | 62% | 1012.1 hPa | 0 mm | - | 413 W/m² | - |
| 1777825128 | 21.11° C | 59% | 1012.1 hPa | 0 mm | - | 397 W/m² | - |
| 1777824824 | 21.11° C | 61% | 1012 hPa | 0 mm | - | 383 W/m² | - |
| 1777824521 | 21.11° C | 59% | 1012.2 hPa | 0 mm | - | 369 W/m² | - |
| 1777824217 | 21.67° C | 61% | 1012.3 hPa | 0 mm | - | 353 W/m² | - |
| 1777823913 | 21.11° C | 60% | 1012.1 hPa | 0 mm | - | 340 W/m² | - |
| 1777823611 | 20.56° C | 63% | 1011.9 hPa | 0 mm | - | 325 W/m² | - |
| 1777823307 | 20.56° C | 62% | 1012.2 hPa | 0 mm | - | 307 W/m² | - |
| 1777823005 | 20.56° C | 63% | 1012.4 hPa | 0 mm | - | 293 W/m² | - |
| 1777822703 | 20.56° C | 66% | 1012.4 hPa | 0 mm | - | 278 W/m² | - |
| 1777822401 | 20.56° C | 68% | 1012.4 hPa | 0 mm | - | 262 W/m² | - |
* Rain latest hour (hover to see other rain measurements)
** Current wind speed in m/s (hover to see current wind gust speed)